Sargodha, Pakistan
Current Conditions -  °F | °C
As of 2:25 AM on Thursday 27 Nov 2014 (Local Time) from OPLA Reporting Station
Smoke Smoke  
Wind Chill: 55°   Ceiling: Unl
Heat Index: 55°   Visibility: 1.5mi
Dew Point: 48°   Wind: 0mph
Humidity: 77%   Direction: NA
Pressure: 29.83"   Gusts: NA
Location:  32.08°N, 72.67°E
Report Text: OPLA 262125Z 00000KT 2500 FU NSC 13/09 Q1010
Loading
Personal Weather Stations






























Interactive Weather Map New forecast layout! Learn more

10-Day Weather Forecast

Advertisements
Track Severe Weather on mobile